Humidity-temperature Sensor

Selected Measurement Type: Air Temperature

 
Air Temperature [°C]     6 entries per hour
Showing data from 6/6/2017 (00:00:00 Z) to 6/5/2017 (00:01:00 Z)
Previous Next [ Day | 3-Days | 7-Days ]
First Last
Prev [ Day | 3-Days | 7-Days ] Next
First Last

Start Time:     :
End Time:     :     
Time (in GMT) :00 :50 :40 :30 :20 :10
Previous Next [ Day | 3-Days | 7-Days ]
First Last
Prev [ Day | 3-Days | 7-Days ] Next
First Last


123 => good data
MM => data is determined as missing
-- => data not received/configured
Back to Top Back to Top
6/6/2017 00:00 to 23:10 25.99 26.13 26.56 26.84 27.19 27.23
6/5/2017 23:00 to 22:10 27.25 27.02 27.19 27.20 27.17 27.28
6/5/2017 22:00 to 21:10 27.28 27.28 27.09 26.78 26.33 26.37
6/5/2017 21:00 to 20:10 26.20 25.94 26.21 26.08 25.79 25.83
6/5/2017 20:00 to 19:10 26.31 25.95 26.04 26.05 26.92 26.92
6/5/2017 19:00 to 18:10 26.65 26.64 26.55 26.42 25.96 26.47
6/5/2017 18:00 to 17:10 26.41 26.17 26.05 25.85 25.28 25.69
6/5/2017 17:00 to 16:10 25.61 25.56 25.60 26.28 25.75 26.38
6/5/2017 16:00 to 15:10 26.16 26.88 27.57 28.01 27.39 27.73
6/5/2017 15:00 to 14:10 27.76 27.68 27.67 27.65 27.61 27.58
6/5/2017 14:00 to 13:10 27.66 27.64 27.65 27.53 27.55 27.61
6/5/2017 13:00 to 12:10 27.48 27.58 27.56 27.50 27.41 27.46
6/5/2017 12:00 to 11:10 -- -- -- -- -- --
6/5/2017 11:00 to 10:10 27.51 27.46 27.56 27.60 27.67 27.50
6/5/2017 10:00 to 9:10 27.28 27.58 27.49 27.54 27.48 27.55
6/5/2017 09:00 to 8:10 27.50 27.48 27.60 27.52 27.62 27.54
6/5/2017 08:00 to 7:10 27.62 27.52 27.54 27.54 27.61 27.53
6/5/2017 07:00 to 6:10 27.64 27.51 27.62 27.57 27.60 27.65
6/5/2017 06:00 to 5:10 27.56 27.61 27.71 27.71 27.70 27.69
6/5/2017 05:00 to 4:10 27.73 27.64 27.67 27.72 27.63 27.69
6/5/2017 04:00 to 3:10 27.70 27.62 27.61 27.62 27.75 27.71
6/5/2017 03:00 to 2:10 27.59 27.55 27.63 27.62 27.64 27.59
6/5/2017 02:00 to 1:10 27.52 27.49 27.63 27.49 27.56 27.44
6/5/2017 01:00 to 0:10 27.50 27.56 27.43 27.41 27.42 27.46